createdAt,value
2023-01-20T00:01:22.419Z,100.00
2023-01-20T00:06:27.859Z,100.00
2023-01-20T00:11:30.318Z,100.00
2023-01-20T00:16:32.647Z,100.00
2023-01-20T00:21:35.246Z,100.00
2023-01-20T00:26:36.893Z,100.00
2023-01-20T00:31:38.958Z,100.00
2023-01-20T00:36:40.751Z,100.00
2023-01-20T00:41:42.404Z,100.00
2023-01-20T00:46:44.101Z,100.00
2023-01-20T00:51:45.824Z,100.00
2023-01-20T00:56:47.486Z,100.00
2023-01-20T01:01:49.259Z,100.00
2023-01-20T01:06:51.128Z,100.00
2023-01-20T01:11:53.087Z,100.00
2023-01-20T01:16:57.328Z,100.00
2023-01-20T01:21:59.164Z,100.00
2023-01-20T01:27:00.930Z,100.00
2023-01-20T01:32:02.670Z,100.00
2023-01-20T01:37:04.343Z,100.00
2023-01-20T01:42:14.055Z,100.00
2023-01-20T01:47:15.765Z,100.00
2023-01-20T01:52:18.820Z,100.00
2023-01-20T01:57:20.572Z,100.00
2023-01-20T02:02:24.011Z,100.00
2023-01-20T02:07:26.439Z,100.00
2023-01-20T02:12:29.617Z,100.00
2023-01-20T02:17:44.645Z,100.00
2023-01-20T02:23:08.235Z,100.00
2023-01-20T02:28:15.759Z,100.00
2023-01-20T02:33:22.184Z,100.00
2023-01-20T02:38:34.025Z,100.00
2023-01-20T02:43:47.278Z,100.00
2023-01-20T02:49:09.907Z,100.00
2023-01-20T02:54:15.709Z,100.00
2023-01-20T02:59:23.786Z,100.00
2023-01-20T03:04:30.059Z,100.00
2023-01-20T03:09:37.924Z,100.00
2023-01-20T03:14:40.033Z,100.00
2023-01-20T03:19:41.897Z,100.00
2023-01-20T03:24:44.784Z,100.00
2023-01-20T03:29:46.492Z,100.00
2023-01-20T03:34:48.225Z,100.00
2023-01-20T03:39:50.413Z,100.00
2023-01-20T03:44:54.656Z,100.00
2023-01-20T03:50:06.007Z,100.00
2023-01-20T03:55:34.373Z,100.00
2023-01-20T04:00:40.073Z,100.00
2023-01-20T04:05:43.986Z,100.00
2023-01-20T04:10:48.839Z,100.00
2023-01-20T04:15:50.610Z,100.00
2023-01-20T04:21:04.304Z,100.00
2023-01-20T04:26:06.147Z,100.00
2023-01-20T04:31:11.359Z,100.00
2023-01-20T04:36:19.855Z,100.00
2023-01-20T04:41:21.556Z,100.00
2023-01-20T04:46:23.383Z,100.00
2023-01-20T04:51:25.086Z,100.00
2023-01-20T04:56:27.202Z,99.62
2023-01-20T05:01:29.116Z,99.78
2023-01-20T05:06:30.919Z,99.04
2023-01-20T05:11:32.544Z,99.39
2023-01-20T05:16:35.064Z,99.58
2023-01-20T05:21:36.691Z,99.07
2023-01-20T05:26:38.430Z,99.78
2023-01-20T05:31:43.484Z,99.37
2023-01-20T05:36:45.454Z,99.45
2023-01-20T05:41:47.824Z,99.62
2023-01-20T05:46:49.646Z,99.20
2023-01-20T05:51:51.346Z,99.22
2023-01-20T05:56:53.060Z,99.33
2023-01-20T06:01:54.714Z,99.50
2023-01-20T06:06:56.425Z,99.04
2023-01-20T06:11:58.132Z,98.09
2023-01-20T06:16:59.969Z,98.74
2023-01-20T06:22:01.660Z,98.77
2023-01-20T06:27:03.328Z,98.77
2023-01-20T06:32:05.352Z,98.28
2023-01-20T06:37:07.023Z,98.24
2023-01-20T06:42:08.735Z,98.43
2023-01-20T06:47:10.491Z,97.80
2023-01-20T06:52:12.188Z,98.35
2023-01-20T06:57:14.125Z,97.99
2023-01-20T07:02:15.964Z,98.15
2023-01-20T07:07:17.701Z,98.37
2023-01-20T07:12:19.319Z,98.05
2023-01-20T07:17:20.982Z,98.26
2023-01-20T07:22:22.767Z,98.24
2023-01-20T07:27:24.556Z,97.50
2023-01-20T07:32:30.271Z,97.51
2023-01-20T07:37:31.893Z,98.12
2023-01-20T07:42:33.588Z,97.56
2023-01-20T07:47:35.392Z,97.53
2023-01-20T07:52:37.079Z,98.11
2023-01-20T07:57:38.886Z,99.12
2023-01-20T08:02:40.851Z,98.12
2023-01-20T08:07:42.595Z,98.47
2023-01-20T08:12:44.322Z,97.96
2023-01-20T08:17:45.964Z,99.01
2023-01-20T08:22:47.754Z,98.69
2023-01-20T08:27:50.260Z,98.79
2023-01-20T08:32:52.048Z,98.05
2023-01-20T08:37:53.824Z,98.80
2023-01-20T08:42:55.547Z,98.63
2023-01-20T08:47:57.238Z,98.94
2023-01-20T08:52:58.971Z,99.03
2023-01-20T08:58:01.534Z,98.41
2023-01-20T09:03:03.303Z,98.10
2023-01-20T09:08:05.513Z,97.60
2023-01-20T09:13:07.381Z,97.98
2023-01-20T09:18:09.179Z,97.37
2023-01-20T09:23:10.902Z,96.55
2023-01-20T09:28:13.736Z,95.31
2023-01-20T09:33:15.547Z,95.71
2023-01-20T09:38:35.912Z,96.04
2023-01-20T09:43:55.656Z,96.21
2023-01-20T09:49:21.872Z,96.00
2023-01-20T09:54:29.345Z,95.38
2023-01-20T09:59:39.793Z,95.66
2023-01-20T10:04:51.074Z,94.77
2023-01-20T10:10:17.524Z,95.03
2023-01-20T10:15:26.443Z,95.02
2023-01-20T10:20:33.951Z,95.06
2023-01-20T10:26:04.792Z,94.38
2023-01-20T10:31:06.602Z,94.83
2023-01-20T10:36:19.659Z,94.92
2023-01-20T10:41:39.612Z,94.55
2023-01-20T10:46:57.420Z,94.53
2023-01-20T10:52:11.318Z,93.77
2023-01-20T10:57:15.957Z,93.65
2023-01-20T11:02:26.141Z,93.79
2023-01-20T11:07:29.954Z,92.59
2023-01-20T11:12:36.821Z,84.87
2023-01-20T11:17:38.705Z,79.65
2023-01-20T11:22:46.698Z,81.30
2023-01-20T11:27:48.804Z,83.20
2023-01-20T11:33:15.952Z,85.64
2023-01-20T11:38:26.233Z,85.06
2023-01-20T11:43:35.832Z,83.03
2023-01-20T11:48:37.538Z,80.39
2023-01-20T11:53:39.356Z,81.08
2023-01-20T11:58:50.743Z,83.20
2023-01-20T12:04:22.081Z,83.73
2023-01-20T12:09:30.482Z,83.95
2023-01-20T12:14:33.445Z,82.58
2023-01-20T12:19:50.493Z,81.73
2023-01-20T12:25:10.688Z,78.36
2023-01-20T12:30:37.317Z,79.20
2023-01-20T12:35:46.393Z,79.77
2023-01-20T12:40:55.529Z,82.75
2023-01-20T12:46:05.588Z,82.27
2023-01-20T12:51:50.803Z,84.87
2023-01-20T12:57:08.529Z,87.08
2023-01-20T13:02:12.885Z,89.66
2023-01-20T13:07:23.822Z,89.69
2023-01-20T13:12:52.595Z,90.05
2023-01-20T13:18:15.637Z,91.37
2023-01-20T13:23:31.410Z,91.95
2023-01-20T13:28:34.349Z,91.23
2023-01-20T13:33:37.912Z,90.83
2023-01-20T13:38:39.735Z,91.76
2023-01-20T13:43:44.221Z,92.44
2023-01-20T13:49:25.933Z,93.16
2023-01-20T13:54:32.821Z,93.76
2023-01-20T13:59:34.538Z,93.89
2023-01-20T14:04:44.561Z,93.45
2023-01-20T14:09:55.544Z,93.91
2023-01-20T14:14:57.729Z,93.69
2023-01-20T14:19:59.384Z,93.78
2023-01-20T14:25:01.900Z,92.91
2023-01-20T14:30:16.107Z,92.88
2023-01-20T14:35:24.969Z,92.01
2023-01-20T14:40:36.007Z,92.70
2023-01-20T14:45:38.053Z,92.36
2023-01-20T14:50:40.968Z,92.71
2023-01-20T14:56:02.033Z,91.75
2023-01-20T15:01:06.227Z,88.61
2023-01-20T15:06:10.629Z,87.25
2023-01-20T15:11:21.897Z,87.52
2023-01-20T15:16:23.613Z,89.00
2023-01-20T15:21:28.419Z,91.46
2023-01-20T15:26:30.920Z,93.41
2023-01-20T15:31:32.627Z,91.89
2023-01-20T15:36:34.394Z,91.86
2023-01-20T15:41:36.059Z,85.18
2023-01-20T15:46:38.652Z,81.90
2023-01-20T15:51:40.703Z,80.32
2023-01-20T15:56:43.193Z,78.93
2023-01-20T16:01:50.311Z,74.98
2023-01-20T16:06:53.522Z,76.29
2023-01-20T16:11:55.523Z,76.15
2023-01-20T16:16:57.188Z,74.22
2023-01-20T16:21:58.949Z,73.99
2023-01-20T16:27:03.647Z,73.02
2023-01-20T16:32:05.734Z,71.35
2023-01-20T16:37:07.498Z,71.58
2023-01-20T16:42:14.682Z,71.88
2023-01-20T16:47:16.759Z,71.23
2023-01-20T16:52:18.788Z,71.38
2023-01-20T16:57:20.587Z,70.87
2023-01-20T17:02:22.419Z,70.55
2023-01-20T17:07:23.979Z,70.50
2023-01-20T17:12:25.935Z,72.06
2023-01-20T17:17:27.664Z,68.85
2023-01-20T17:22:29.775Z,69.21
2023-01-20T17:27:31.664Z,70.78
2023-01-20T17:32:34.697Z,71.73
2023-01-20T17:37:36.500Z,70.57
2023-01-20T17:42:38.876Z,69.71
2023-01-20T17:47:42.158Z,69.94
2023-01-20T17:52:44.067Z,69.67
2023-01-20T17:57:46.017Z,68.60
2023-01-20T18:02:47.853Z,68.54
2023-01-20T18:07:50.349Z,68.42
2023-01-20T18:12:52.008Z,68.81
2023-01-20T18:17:56.245Z,67.33
2023-01-20T18:22:58.775Z,66.82
2023-01-20T18:28:00.815Z,68.11
2023-01-20T18:33:03.101Z,66.64
2023-01-20T18:38:05.060Z,67.46
2023-01-20T18:43:07.099Z,67.28
2023-01-20T18:48:13.098Z,66.92
2023-01-20T18:53:15.787Z,66.65
2023-01-20T18:58:18.162Z,67.38
2023-01-20T19:03:20.656Z,67.16
2023-01-20T19:08:22.743Z,67.80
2023-01-20T19:13:25.264Z,65.36
2023-01-20T19:18:28.053Z,65.73
2023-01-20T19:23:31.460Z,66.97
2023-01-20T19:28:34.634Z,69.63
2023-01-20T19:33:38.134Z,74.34
2023-01-20T19:38:41.057Z,77.97
2023-01-20T19:43:45.685Z,79.35
2023-01-20T19:48:50.144Z,80.58
2023-01-20T19:53:58.654Z,81.37
2023-01-20T19:59:03.484Z,81.53
2023-01-20T20:04:08.951Z,81.68
2023-01-20T20:09:14.560Z,82.47
2023-01-20T20:14:21.676Z,83.09
2023-01-20T20:19:24.327Z,82.67
2023-01-20T20:24:28.895Z,82.89
2023-01-20T20:29:31.106Z,83.14
2023-01-20T20:34:34.113Z,83.34
2023-01-20T20:39:36.818Z,83.42
2023-01-20T20:44:39.236Z,83.82
2023-01-20T20:49:41.613Z,85.09
2023-01-20T20:54:43.888Z,86.40
2023-01-20T20:59:58.990Z,87.69
2023-01-20T21:05:02.490Z,89.24
2023-01-20T21:10:05.369Z,89.29
2023-01-20T21:15:08.754Z,89.27
2023-01-20T21:20:11.784Z,89.76
2023-01-20T21:25:16.954Z,89.34
2023-01-20T21:30:19.656Z,89.30
2023-01-20T21:35:21.319Z,88.41
2023-01-20T21:40:23.151Z,87.90
2023-01-20T21:45:25.058Z,87.67
2023-01-20T21:50:45.630Z,87.75
2023-01-20T21:55:48.364Z,87.53
2023-01-20T22:00:54.966Z,86.66
2023-01-20T22:05:56.555Z,87.20
2023-01-20T22:10:59.923Z,87.80
2023-01-20T22:16:03.347Z,88.04
2023-01-20T22:21:06.516Z,88.71
2023-01-20T22:26:08.491Z,88.25
2023-01-20T22:31:20.034Z,87.49
2023-01-20T22:36:23.008Z,87.37
2023-01-20T22:41:25.084Z,87.57
2023-01-20T22:46:28.278Z,87.38
2023-01-20T22:51:30.870Z,87.58
2023-01-20T22:56:32.856Z,86.98
2023-01-20T23:01:35.867Z,87.56
2023-01-20T23:06:38.111Z,88.25
2023-01-20T23:11:40.292Z,87.82
2023-01-20T23:16:43.319Z,88.01
2023-01-20T23:21:45.070Z,88.05
2023-01-20T23:26:46.827Z,88.21
2023-01-20T23:31:48.537Z,88.17
2023-01-20T23:36:50.367Z,87.79
2023-01-20T23:41:53.012Z,87.75
2023-01-20T23:46:54.636Z,88.46
2023-01-20T23:51:56.258Z,87.69
2023-01-20T23:56:57.918Z,87.56
